地図

経路データ

SID SEASON NUMBER BASIN SUBBASIN NAME ISO_TIME NATURE LAT LON WMO_WIND WMO_PRES WMO_AGENCY TRACK_TYPE DIST2LAND LANDFALL IFLAG USA_AGENCY USA_ATCF_ID USA_LAT USA_LON USA_RECORD USA_STATUS USA_WIND USA_PRES USA_SSHS USA_R34_NE USA_R34_SE USA_R34_SW USA_R34_NW USA_R50_NE USA_R50_SE USA_R50_SW USA_R50_NW USA_R64_NE USA_R64_SE USA_R64_SW USA_R64_NW USA_POCI USA_ROCI USA_RMW USA_EYE TOKYO_LAT TOKYO_LON TOKYO_GRADE TOKYO_WIND TOKYO_PRES TOKYO_R50_DIR TOKYO_R50_LONG TOKYO_R50_SHORT TOKYO_R30_DIR TOKYO_R30_LONG TOKYO_R30_SHORT TOKYO_LAND CMA_LAT CMA_LON CMA_CAT CMA_WIND CMA_PRES HKO_LAT HKO_LON HKO_CAT HKO_WIND HKO_PRES NEWDELHI_LAT NEWDELHI_LON NEWDELHI_GRADE NEWDELHI_WIND NEWDELHI_PRES NEWDELHI_CI NEWDELHI_DP NEWDELHI_POCI REUNION_LAT REUNION_LON REUNION_TYPE REUNION_WIND REUNION_PRES REUNION_TNUM REUNION_CI REUNION_RMW REUNION_R34_NE REUNION_R34_SE REUNION_R34_SW REUNION_R34_NW REUNION_R50_NE REUNION_R50_SE REUNION_R50_SW REUNION_R50_NW REUNION_R64_NE REUNION_R64_SE REUNION_R64_SW REUNION_R64_NW BOM_LAT BOM_LON BOM_TYPE BOM_WIND BOM_PRES BOM_TNUM BOM_CI BOM_RMW BOM_R34_NE BOM_R34_SE BOM_R34_SW BOM_R34_NW BOM_R50_NE BOM_R50_SE BOM_R50_SW BOM_R50_NW BOM_R64_NE BOM_R64_SE BOM_R64_SW BOM_R64_NW BOM_ROCI BOM_POCI BOM_EYE BOM_POS_METHOD BOM_PRES_METHOD NADI_LAT NADI_LON NADI_CAT NADI_WIND NADI_PRES WELLINGTON_LAT WELLINGTON_LON WELLINGTON_WIND WELLINGTON_PRES DS824_LAT DS824_LON DS824_STAGE DS824_WIND DS824_PRES TD9636_LAT TD9636_LON TD9636_STAGE TD9636_WIND TD9636_PRES TD9635_LAT TD9635_LON TD9635_WIND TD9635_PRES TD9635_ROCI NEUMANN_LAT NEUMANN_LON NEUMANN_CLASS NEUMANN_WIND NEUMANN_PRES MLC_LAT MLC_LON MLC_CLASS MLC_WIND MLC_PRES USA_GUST BOM_GUST BOM_GUST_PER REUNION_GUST REUNION_GUST_PER USA_SEAHGT USA_SEARAD_NE USA_SEARAD_SE USA_SEARAD_SW USA_SEARAD_NW STORM_SPEED STORM_DIR
1996250N08148 1996 79 WP MM NOT_NAMED 1996-09-06 00:00:00 NR 8.30000 148.100 main 1167 1167 O_____________ jtwc_wp WP241996 8.30000 148.100 15 -1 9 328
1996250N08148 1996 79 WP MM NOT_NAMED 1996-09-06 03:00:00 NR 8.70004 147.850 main 1211 1211 P_____________ WP241996 8.70004 147.850 15 -1 9 328
1996250N08148 1996 79 WP MM NOT_NAMED 1996-09-06 06:00:00 NR 9.10000 147.600 main 1255 1255 O_____________ jtwc_wp WP241996 9.10000 147.600 15 -1 9 328
1996250N08148 1996 79 WP MM NOT_NAMED 1996-09-06 09:00:00 NR 9.49998 147.350 main 1299 1299 P_____________ WP241996 9.49998 147.350 15 -1 9 328
1996250N08148 1996 79 WP MM NOT_NAMED 1996-09-06 12:00:00 NR 9.90000 147.100 main 1344 1344 O_____________ jtwc_wp WP241996 9.90000 147.100 15 -1 10 330
1996250N08148 1996 79 WP MM NOT_NAMED 1996-09-06 15:00:00 NR 10.3149 146.865 main 1389 1389 P_____________ WP241996 10.3149 146.865 15 -1 9 328
1996250N08148 1996 79 WP MM NOT_NAMED 1996-09-06 18:00:00 NR 10.7000 146.600 main 1434 1434 O_____________ jtwc_wp WP241996 10.7000 146.600 15 -1 9 321
1996250N08148 1996 79 WP MM NOT_NAMED 1996-09-06 21:00:00 NR 11.0225 146.272 main 1468 1468 P_____________ WP241996 11.0225 146.272 15 -1 9 311
1996250N08148 1996 79 WP MM NOT_NAMED 1996-09-07 00:00:00 NR 11.3000 145.900 main 1503 1503 O_____________ jtwc_wp WP241996 11.3000 145.900 15 -1 9 306
1996250N08148 1996 79 WP MM NOT_NAMED 1996-09-07 03:00:00 NR 11.5574 145.522 main 1539 1539 P_____________ WP241996 11.5574 145.522 15 -1 9 303
1996250N08148 1996 79 WP MM NOT_NAMED 1996-09-07 06:00:00 NR 11.8000 145.100 main 1566 1566 O_____________ jtwc_wp WP241996 11.8000 145.100 15 -1 10 299
1996250N08148 1996 79 WP MM NOT_NAMED 1996-09-07 09:00:00 NR 12.0423 144.645 main 1595 1595 P_____________ WP241996 12.0423 144.645 15 -1 11 297
1996250N08148 1996 79 WP MM NOT_NAMED 1996-09-07 12:00:00 NR 12.3000 144.100 main 1636 1636 O_____________ jtwc_wp WP241996 12.3000 144.100 15 -1 13 296
1996250N08148 1996 79 WP MM NOT_NAMED 1996-09-07 15:00:00 NR 12.6073 143.460 main 1682 1682 P_____________ WP241996 12.6073 143.460 15 -1 15 294
1996250N08148 1996 79 WP MM NOT_NAMED 1996-09-07 18:00:00 NR 12.9000 142.700 main 1698 1690 O_____________ jtwc_wp WP241996 12.9000 142.700 15 -1 17 288
1996250N08148 1996 79 WP MM NOT_NAMED 1996-09-07 21:00:00 NR 13.1074 141.837 main 1687 1673 P_____________ WP241996 13.1074 141.837 15 -1 18 283
1996250N08148 1996 79 WP MM NOT_NAMED 1996-09-08 00:00:00 NR 13.3000 140.900 main 1662 1568 O_____________ jtwc_wp WP241996 13.3000 140.900 15 -1 19 284
1996250N08148 1996 79 WP MM NOT_NAMED 1996-09-08 03:00:00 NR 13.5497 139.957 main 1568 1478 P_____________ WP241996 13.5497 139.957 15 -1 19 285
1996250N08148 1996 79 WP MM NOT_NAMED 1996-09-08 06:00:00 NR 13.8000 139.000 main 1468 1377 O_____________ jtwc_wp WP241996 13.8000 139.000 15 -1 19 284
1996250N08148 1996 79 WP MM NOT_NAMED 1996-09-08 09:00:00 NR 14.0144 138.065 main 1377 1286 P_____________ WP241996 14.0144 138.065 15 -1 19 282
1996250N08148 1996 79 WP MM NOT_NAMED 1996-09-08 12:00:00 NR 14.2000 137.100 main 1276 1173 O_____________ jtwc_wp WP241996 14.2000 137.100 15 -1 20 280
1996250N08148 1996 79 WP MM NOT_NAMED 1996-09-08 15:00:00 NR 14.3649 136.050 main 1163 1070 P_____________ WP241996 14.3649 136.050 15 -1 21 278
1996250N08148 1996 79 WP MM NOT_NAMED 1996-09-08 18:00:00 NR 14.5000 135.000 main 1060 968 O_____________ jtwc_wp WP241996 14.5000 135.000 15 -1 20 277
1996250N08148 1996 79 WP MM NOT_NAMED 1996-09-08 21:00:00 NR 14.6144 134.035 main 958 878 P_____________ WP241996 14.6144 134.035 20 -1 19 276
1996250N08148 1996 79 WP MM NOT_NAMED 1996-09-09 00:00:00 NR 14.7000 133.100 main 868 781 O_____________ jtwc_wp WP241996 14.7000 133.100 25 -1 18 275
1996250N08148 1996 79 WP MM NOT_NAMED 1996-09-09 03:00:00 NR 14.7645 132.157 main 781 691 P_____________ WP241996 14.7645 132.157 25 -1 18 273
1996250N08148 1996 79 WP MM NOT_NAMED 1996-09-09 06:00:00 NR 14.8000 131.200 main 681 595 O_____________ jtwc_wp WP241996 14.8000 131.200 25 -1 19 271
1996250N08148 1996 79 WP MM NOT_NAMED 1996-09-09 09:00:00 NR 14.8070 130.222 main 585 503 P_____________ WP241996 14.8070 130.222 25 -1 19 270
1996250N08148 1996 79 WP MM NOT_NAMED 1996-09-09 12:00:00 NR 14.8000 129.200 main 494 412 O_____________ jtwc_wp WP241996 14.8000 129.200 25 -1 20 269
1996250N08148 1996 79 WP MM NOT_NAMED 1996-09-09 15:00:00 NR 14.7842 128.145 main 404 307 P_____________ WP241996 14.7842 128.145 25 -1 21 270
1996250N08148 1996 79 WP MM NOT_NAMED 1996-09-09 18:00:00 NR 14.8000 127.000 main 297 181 O_____________ jtwc_wp WP241996 14.8000 127.000 25 -1 23 271
1996250N08148 1996 79 WP MM NOT_NAMED 1996-09-09 21:00:00 NR 14.8321 125.737 main 172 109 P_____________ WP241996 14.8321 125.737 25 -1 25 275
1996250N08148 1996 79 WP MM NOT_NAMED 1996-09-10 00:00:00 NR 15.0000 124.400 main 112 111 O_____________ jtwc_wp WP241996 15.0000 124.400 25 -1 26 283
1996250N08148 1996 79 WP MM NOT_NAMED 1996-09-10 03:00:00 NR 15.4189 123.081 main 131 15 P_____________ WP241996 15.4189 123.081 25 -1 28 289
1996250N08148 1996 79 WP MM NOT_NAMED 1996-09-10 06:00:00 NR 15.9000 121.700 main 10 0 O_____________ jtwc_wp WP241996 15.9000 121.700 25 -1 30 286
1996250N08148 1996 79 WP MM NOT_NAMED 1996-09-10 09:00:00 NR 16.2468 120.073 main 11 0 P_____________ WP241996 16.2468 120.073 25 -1 29 282
1996250N08148 1996 79 WP MM NOT_NAMED 1996-09-10 12:00:00 NR 16.5000 118.700 main 119 119 O_____________ jtwc_wp WP241996 16.5000 118.700 25 -1 20 283
1996250N08148 1996 79 WP MM NOT_NAMED 1996-09-10 15:00:00 NR 16.6930 118.049 main 197 197 P_____________ WP241996 16.6930 118.049 25 -1 10 287
1996250N08148 1996 79 WP MM NOT_NAMED 1996-09-10 18:00:00 NR 16.8000 117.700 main 230 230 O_____________ jtwc_wp WP241996 16.8000 117.700 25 -1 8 282
1996250N08148 1996 79 WP MM NOT_NAMED 1996-09-10 21:00:00 NR 16.8593 117.260 main 274 274 P_____________ WP241996 16.8593 117.260 25 -1 10 270
1996250N08148 1996 79 WP MM NOT_NAMED 1996-09-11 00:00:00 NR 16.8000 116.700 main 332 332 O_____________ jtwc_wp WP241996 16.8000 116.700 25 -1 14 259
1996250N08148 1996 79 WP MM NOT_NAMED 1996-09-11 03:00:00 NR 16.5950 115.875 main 411 411 P_____________ WP241996 16.5950 115.875 27 -1 18 254
1996250N08148 1996 79 WP MM NOT_NAMED 1996-09-11 06:00:00 NR 16.3000 114.900 main 513 477 O_____________ jtwc_wp WP241996 16.3000 114.900 30 -1 20 252
1996250N08148 1996 79 WP MM NOT_NAMED 1996-09-11 09:00:00 NR 15.9778 113.870 main 477 422 P_____________ WP241996 15.9778 113.870 30 -1 20 253
1996250N08148 1996 79 WP MM NOT_NAMED 1996-09-11 12:00:00 NR 15.7000 112.900 main 422 337 O_____________ jtwc_wp WP241996 15.7000 112.900 30 -1 17 256
1996250N08148 1996 79 WP MM NOT_NAMED 1996-09-11 15:00:00 NR 15.5546 112.110 main 337 272 P_____________ WP241996 15.5546 112.110 32 -1 14 262
1996250N08148 1996 79 WP MM NOT_NAMED 1996-09-11 18:00:00 NR 15.5000 111.500 main 272 232 O_____________ jtwc_wp WP241996 15.5000 111.500 35 0 10 265
1996250N08148 1996 79 WP MM NOT_NAMED 1996-09-11 21:00:00 NR 15.4622 111.048 main 222 193 P_____________ WP241996 15.4622 111.048 37 0 8 270
1996250N08148 1996 79 WP MM NOT_NAMED 1996-09-12 00:00:00 NR 15.5000 110.700 main 193 156 O_____________ jtwc_wp WP241996 15.5000 110.700 40 0 7 283
1996250N08148 1996 79 WP MM NOT_NAMED 1996-09-12 03:00:00 NR 15.6200 110.328 main 156 135 P_____________ WP241996 15.6200 110.328 42 0 7 294
1996250N08148 1996 79 WP MM NOT_NAMED 1996-09-12 06:00:00 NR 15.8000 110.000 main 135 131 O_____________ jtwc_wp WP241996 15.8000 110.000 45 0 7 312
1996250N08148 1996 79 WP MM NOT_NAMED 1996-09-12 09:00:00 TS 16.1117 109.767 main 139 131 P_____________ WP241996 15.9924 109.735 45 0 8 321
1996250N08148 1996 79 WP MM NOT_NAMED 1996-09-12 12:00:00 TS 16.4000 109.500 main 135 117 O_O___________ jtwc_wp WP241996 16.2000 109.500 45 0 16.8000 109.500 1 29 995 8 311
1996250N08148 1996 79 WP MM NOT_NAMED 1996-09-12 15:00:00 TS 16.6239 109.151 main 117 100 P_P___________ WP241996 16.4000 109.250 42 0 16.9457 108.986 1 29 995 8 301
1996250N08148 1996 79 WP MM NOT_NAMED 1996-09-12 18:00:00 TS 16.8000 108.800 main 100 85 O_O___________ jtwc_wp WP241996 16.6000 109.000 40 0 17.0000 108.600 1 29 995 6 294
1996250N08148 1996 79 WP MM NOT_NAMED 1996-09-12 21:00:00 TS 16.8695 108.566 main 94 84 P_P___________ WP241996 16.8000 108.750 40 0 16.9390 108.381 1 29 995 6 291
1996250N08148 1996 79 WP MM NOT_NAMED 1996-09-13 00:00:00 TS 17.0000 108.250 main 85 57 O_O___________ jtwc_wp WP241996 17.0000 108.500 40 0 17.0000 108.000 1 29 995 10 298
1996250N08148 1996 79 WP MM NOT_NAMED 1996-09-13 03:00:00 TS 17.3511 107.604 main 62 46 P_P___________ WP241996 17.2000 108.250 37 0 17.5022 106.958 1 26 995 12 302
1996250N08148 1996 79 WP MM NOT_NAMED 1996-09-13 06:00:00 TS 17.6571 107.143 main 54 54 O_O___________ jtwc_wp WP241996 17.4000 108.000 35 0 18.0000 106.000 1 23 995 7 311
1996250N08148 1996 79 WP MM NOT_NAMED 1996-09-13 09:00:00 TS 17.7796 107.083 main 61 61 P_P___________ WP241996 17.6075 107.743 32 -1 18.1237 105.764 1 23 995 2 15
1996250N08148 1996 79 WP MM NOT_NAMED 1996-09-13 12:00:00 TS 17.8400 107.200 main 69 69 O_O___________ jtwc_wp WP241996 17.8000 107.500 30 -1 18.0000 106.000 1 23 995 3 47
1996250N08148 1996 79 WP MM NOT_NAMED 1996-09-13 15:00:00 NR 17.9575 107.285 main 85 67 P_____________ WP241996 17.9575 107.285 30 -1 1 3 340
1996250N08148 1996 79 WP MM NOT_NAMED 1996-09-13 18:00:00 NR 18.1000 107.100 main 67 62 O_____________ jtwc_wp WP241996 18.1000 107.100 30 -1 4 313
1996250N08148 1996 79 WP MM NOT_NAMED 1996-09-13 21:00:00 NR 18.2575 106.942 main 57 53 P_____________ WP241996 18.2575 106.942 30 -1 4 317
1996250N08148 1996 79 WP MM NOT_NAMED 1996-09-14 00:00:00 NR 18.4000 106.800 main 53 46 O_____________ jtwc_wp WP241996 18.4000 106.800 30 -1 4 312
1996250N08148 1996 79 WP MM NOT_NAMED 1996-09-14 03:00:00 NR 18.5150 106.643 main 46 46 P_____________ WP241996 18.5150 106.643 27 -1 3 305
1996250N08148 1996 79 WP MM NOT_NAMED 1996-09-14 06:00:00 NR 18.6000 106.500 main 49 45 O_____________ jtwc_wp WP241996 18.6000 106.500 25 -1 3 301
1996250N08148 1996 79 WP MM NOT_NAMED 1996-09-14 09:00:00 NR 18.6575 106.390 main 53 46 P_____________ WP241996 18.6575 106.390 22 -1 2 298
1996250N08148 1996 79 WP MM NOT_NAMED 1996-09-14 12:00:00 NR 18.7000 106.300 main 46 O_____________ jtwc_wp WP241996 18.7000 106.300 20 -1 2 296

デジタル台風データ・検索

IBTrACS Databaseについて

本データベースは、米国NOAAが公開する1842年以降の世界の熱帯低気圧のベストトラックデータアーカイブInternational Best Track Archive for Climate Stewardship (IBTrACS)を、ウェブで閲覧しやすい形式に変換したものです。

最終更新日:2021-12-06